createdAt,value
2023-04-18T00:00:11.096Z,16.08
2023-04-18T00:01:11.078Z,14.38
2023-04-18T00:02:11.221Z,13.68
2023-04-18T00:03:11.336Z,14.14
2023-04-18T00:04:11.508Z,16.06
2023-04-18T00:05:11.152Z,16.34
2023-04-18T00:06:11.074Z,14.74
2023-04-18T00:07:11.115Z,13.78
2023-04-18T00:08:11.072Z,14.56
2023-04-18T00:09:11.196Z,14.58
2023-04-18T00:10:11.071Z,14.46
2023-04-18T00:11:11.081Z,13.98
2023-04-18T00:12:11.082Z,14.44
2023-04-18T00:13:11.076Z,11.94
2023-04-18T00:14:11.229Z,14.28
2023-04-18T00:15:12.072Z,15.02
2023-04-18T00:16:11.074Z,13.74
2023-04-18T00:17:12.215Z,13.18
2023-04-18T00:18:11.081Z,13.24
2023-04-18T00:19:11.071Z,15.20
2023-04-18T00:20:11.125Z,14.50
2023-04-18T00:21:11.099Z,14.24
2023-04-18T00:22:11.074Z,13.86
2023-04-18T00:23:12.846Z,13.56
2023-04-18T00:24:11.089Z,13.34
2023-04-18T00:25:11.086Z,14.46
2023-04-18T00:26:11.084Z,15.64
2023-04-18T00:27:11.072Z,15.58
2023-04-18T00:28:11.076Z,14.40
2023-04-18T00:29:11.089Z,12.90
2023-04-18T00:30:11.077Z,14.54
2023-04-18T00:31:11.155Z,12.24
2023-04-18T00:32:11.084Z,14.04
2023-04-18T00:33:11.098Z,13.74
2023-04-18T00:34:11.178Z,12.74
2023-04-18T00:35:11.082Z,11.54
2023-04-18T00:36:11.078Z,13.00
2023-04-18T00:37:11.070Z,12.32
2023-04-18T00:38:11.078Z,12.16
2023-04-18T00:39:11.075Z,11.04
2023-04-18T00:40:11.076Z,12.44
2023-04-18T00:41:11.076Z,11.78
2023-04-18T00:42:11.084Z,12.48
2023-04-18T00:43:12.076Z,11.24
2023-04-18T00:44:11.238Z,13.28
2023-04-18T00:45:11.076Z,12.42
2023-04-18T00:46:11.188Z,14.16
2023-04-18T00:47:11.078Z,13.14
2023-04-18T00:48:11.086Z,13.44
2023-04-18T00:49:11.096Z,13.06
2023-04-18T00:50:11.097Z,12.38
2023-04-18T00:51:11.094Z,12.88
2023-04-18T00:52:11.080Z,12.50
2023-04-18T00:53:11.114Z,13.36
2023-04-18T00:54:11.161Z,13.50
2023-04-18T00:55:11.073Z,12.24
2023-04-18T00:56:11.079Z,13.02
2023-04-18T00:57:11.084Z,13.70
2023-04-18T00:58:11.075Z,13.56
2023-04-18T00:59:11.096Z,13.58
2023-04-18T01:00:13.082Z,12.76
2023-04-18T01:01:11.093Z,14.04
2023-04-18T01:02:11.107Z,13.00
2023-04-18T01:04:09.384Z,13.58
2023-04-18T01:04:13.672Z,12.86
2023-04-18T01:05:11.094Z,13.52
2023-04-18T01:06:11.059Z,13.78
2023-04-18T01:07:11.068Z,12.70
2023-04-18T01:08:11.066Z,11.44
2023-04-18T01:09:11.063Z,10.68
2023-04-18T01:10:11.067Z,12.18
2023-04-18T01:11:11.065Z,11.64
2023-04-18T01:12:11.058Z,11.58
2023-04-18T01:13:19.078Z,10.68
2023-04-18T01:14:11.221Z,11.50
2023-04-18T01:15:11.062Z,10.88
2023-04-18T01:16:11.088Z,10.80
2023-04-18T01:17:11.066Z,11.82
2023-04-18T01:18:11.068Z,11.56
2023-04-18T01:19:11.064Z,11.26
2023-04-18T01:20:11.072Z,12.74
2023-04-18T01:21:11.057Z,10.82
2023-04-18T01:22:11.063Z,12.14
2023-04-18T01:25:13.021Z,11.12
2023-04-18T01:31:13.100Z,11.66
2023-04-18T01:32:11.062Z,11.04
2023-04-18T01:33:11.086Z,13.14
2023-04-18T01:34:11.183Z,13.14
2023-04-18T01:35:11.062Z,13.10
2023-04-18T01:36:11.061Z,12.66
2023-04-18T01:37:11.063Z,12.76
2023-04-18T01:38:11.063Z,12.24
2023-04-18T01:39:11.067Z,11.66
2023-04-18T01:40:11.063Z,12.28
2023-04-18T01:41:11.064Z,13.70
2023-04-18T01:42:11.062Z,13.14
2023-04-18T01:43:11.067Z,13.68
2023-04-18T01:44:11.119Z,14.84
2023-04-18T01:45:11.062Z,14.38
2023-04-18T01:46:11.074Z,12.64
2023-04-18T01:47:11.060Z,12.68
2023-04-18T01:48:11.063Z,12.58
2023-04-18T01:49:11.063Z,13.66
2023-04-18T01:50:11.078Z,12.90
2023-04-18T01:51:11.062Z,12.70
2023-04-18T01:52:11.082Z,13.58
2023-04-18T01:53:11.065Z,14.46
2023-04-18T01:54:11.150Z,13.54
2023-04-18T01:55:11.086Z,13.56
2023-04-18T01:56:11.063Z,14.00
2023-04-18T01:57:12.064Z,15.10
2023-04-18T01:58:11.083Z,13.66
2023-04-18T01:59:11.068Z,14.10
2023-04-18T02:00:11.065Z,15.62
2023-04-18T02:01:11.115Z,15.04
2023-04-18T02:02:11.173Z,14.88
2023-04-18T02:03:11.281Z,14.40
2023-04-18T02:04:11.237Z,14.66
2023-04-18T02:05:11.086Z,14.78
2023-04-18T02:06:11.061Z,16.18
2023-04-18T02:07:11.105Z,16.56
2023-04-18T02:08:11.083Z,17.32
2023-04-18T02:09:11.072Z,15.78
2023-04-18T02:10:11.076Z,15.54
2023-04-18T02:11:11.080Z,14.68
2023-04-18T02:12:11.063Z,18.28
2023-04-18T02:13:11.072Z,16.90
2023-04-18T02:14:11.109Z,17.00
2023-04-18T02:15:11.066Z,17.38
2023-04-18T02:16:13.098Z,18.74
2023-04-18T02:17:11.070Z,16.24
2023-04-18T02:18:11.068Z,17.78
2023-04-18T02:19:11.071Z,17.14
2023-04-18T02:20:12.079Z,16.38
2023-04-18T02:21:11.091Z,18.62
2023-04-18T02:22:11.066Z,17.26
2023-04-18T02:23:11.071Z,19.68
2023-04-18T02:24:11.222Z,18.08
2023-04-18T02:25:11.070Z,17.94
2023-04-18T02:26:11.096Z,19.14
2023-04-18T02:27:11.084Z,18.80
2023-04-18T02:28:11.067Z,20.26
2023-04-18T02:29:11.064Z,19.42
2023-04-18T02:30:11.087Z,20.66
2023-04-18T02:31:11.071Z,20.70
2023-04-18T02:32:11.108Z,19.96
2023-04-18T02:33:11.071Z,18.94
2023-04-18T02:34:11.214Z,19.20
2023-04-18T02:35:11.073Z,17.84
2023-04-18T02:36:11.069Z,19.54
2023-04-18T02:37:11.074Z,18.68
2023-04-18T02:38:11.070Z,21.16
2023-04-18T02:39:11.071Z,19.46
2023-04-18T02:40:11.076Z,19.28
2023-04-18T02:41:11.072Z,20.34
2023-04-18T02:42:11.071Z,20.22
2023-04-18T02:43:11.074Z,19.66
2023-04-18T02:44:11.347Z,20.86
2023-04-18T02:45:11.070Z,21.22
2023-04-18T02:46:11.165Z,20.54
2023-04-18T02:47:11.069Z,20.14
2023-04-18T02:48:11.101Z,21.44
2023-04-18T02:49:11.079Z,20.82
2023-04-18T02:50:11.084Z,19.04
2023-04-18T02:51:11.065Z,21.00
2023-04-18T02:52:11.078Z,20.16
2023-04-18T02:53:11.069Z,19.44
2023-04-18T02:54:11.158Z,20.62
2023-04-18T02:55:11.067Z,20.94
2023-04-18T02:56:11.070Z,20.34
2023-04-18T02:57:11.079Z,21.00
2023-04-18T02:58:11.075Z,21.68
2023-04-18T02:59:11.083Z,20.34
2023-04-18T03:00:11.067Z,20.16
2023-04-18T03:01:11.118Z,21.30
2023-04-18T03:02:11.100Z,21.30
2023-04-18T03:03:11.130Z,19.44
2023-04-18T03:04:11.149Z,20.08
2023-04-18T03:05:11.103Z,20.58
2023-04-18T03:06:11.071Z,20.56
2023-04-18T03:07:11.072Z,17.80
2023-04-18T03:08:11.085Z,19.96
2023-04-18T03:09:11.078Z,19.52
2023-04-18T03:10:11.081Z,19.96
2023-04-18T03:11:11.080Z,19.74
2023-04-18T03:12:11.075Z,20.14
2023-04-18T03:13:11.071Z,19.90
2023-04-18T03:14:11.185Z,18.30
2023-04-18T03:15:11.078Z,19.40
2023-04-18T03:16:11.122Z,20.04
2023-04-18T03:17:11.071Z,19.16
2023-04-18T03:18:11.081Z,18.50
2023-04-18T03:19:11.073Z,19.94
2023-04-18T03:20:11.085Z,18.92
2023-04-18T03:21:11.079Z,20.24
2023-04-18T03:22:11.074Z,19.94
2023-04-18T03:23:11.074Z,16.80
2023-04-18T03:24:12.224Z,18.52
2023-04-18T03:25:11.075Z,17.58
2023-04-18T03:26:11.075Z,19.34
2023-04-18T03:27:11.074Z,19.20
2023-04-18T03:28:11.071Z,19.48
2023-04-18T03:29:11.073Z,18.68
2023-04-18T03:30:11.074Z,18.64
2023-04-18T03:31:11.089Z,17.14
2023-04-18T03:32:11.068Z,19.34
2023-04-18T03:33:11.073Z,19.76
2023-04-18T03:34:11.142Z,19.72
2023-04-18T03:35:11.081Z,20.10
2023-04-18T03:36:11.070Z,20.18
2023-04-18T03:37:11.073Z,17.96
2023-04-18T03:38:11.072Z,20.24
2023-04-18T03:39:11.072Z,19.02
2023-04-18T03:40:11.084Z,20.04
2023-04-18T03:41:11.071Z,21.34
2023-04-18T03:42:11.075Z,19.16
2023-04-18T03:43:11.086Z,19.18
2023-04-18T03:44:11.266Z,17.60
2023-04-18T03:45:11.073Z,19.76
2023-04-18T03:46:11.163Z,18.44
2023-04-18T03:47:11.071Z,20.84
2023-04-18T03:48:11.104Z,19.34
2023-04-18T03:49:11.096Z,18.72
2023-04-18T03:50:11.074Z,22.58
2023-04-18T03:51:11.074Z,21.54
2023-04-18T03:52:11.098Z,23.98
2023-04-18T03:53:11.083Z,23.56
2023-04-18T03:54:11.191Z,27.12
2023-04-18T03:55:11.083Z,25.18
2023-04-18T03:56:11.072Z,22.74
2023-04-18T03:57:11.079Z,22.44
2023-04-18T03:58:11.082Z,22.06
2023-04-18T03:59:11.085Z,26.00
2023-04-18T04:00:11.091Z,24.16
2023-04-18T04:01:11.073Z,21.80
2023-04-18T04:02:11.145Z,23.64
2023-04-18T04:03:11.372Z,21.70
2023-04-18T04:04:11.182Z,23.02
2023-04-18T04:05:11.158Z,22.36
2023-04-18T04:06:11.064Z,20.64
2023-04-18T04:07:11.081Z,21.08
2023-04-18T04:08:11.061Z,19.52
2023-04-18T04:09:11.075Z,20.62
2023-04-18T04:10:11.070Z,20.92
2023-04-18T04:11:11.066Z,20.96
2023-04-18T04:12:11.066Z,21.00
2023-04-18T04:13:11.066Z,17.36
2023-04-18T04:14:11.132Z,18.76
2023-04-18T04:15:11.060Z,19.16
2023-04-18T04:16:11.145Z,19.68
2023-04-18T04:17:11.064Z,19.54
2023-04-18T04:18:11.091Z,19.24
2023-04-18T04:19:11.072Z,19.02
2023-04-18T04:20:11.071Z,19.24
2023-04-18T04:21:11.060Z,21.54
2023-04-18T04:22:11.080Z,19.72
2023-04-18T04:23:11.066Z,18.08
2023-04-18T04:24:11.087Z,19.48
2023-04-18T04:25:11.076Z,17.98
2023-04-18T04:26:11.072Z,20.98
2023-04-18T04:27:11.066Z,18.78
2023-04-18T04:28:11.072Z,19.20
2023-04-18T04:29:11.071Z,19.62
2023-04-18T04:30:13.216Z,19.02
2023-04-18T04:31:14.065Z,18.52
2023-04-18T04:32:11.112Z,18.50
2023-04-18T04:33:11.062Z,17.94
2023-04-18T04:34:11.063Z,17.40
2023-04-18T04:35:11.072Z,19.42
2023-04-18T04:36:11.061Z,18.60
2023-04-18T04:37:11.061Z,18.38
2023-04-18T04:38:11.070Z,19.18
2023-04-18T04:39:11.063Z,20.60
2023-04-18T04:40:11.059Z,18.92
2023-04-18T04:41:11.070Z,19.06
2023-04-18T04:42:11.062Z,16.24
2023-04-18T04:43:11.061Z,18.14
2023-04-18T04:44:11.092Z,18.84
2023-04-18T04:45:12.065Z,18.04
2023-04-18T04:46:11.074Z,19.26
2023-04-18T04:47:11.058Z,18.70
2023-04-18T04:48:11.075Z,19.64
2023-04-18T04:49:12.071Z,20.58
2023-04-18T04:50:11.063Z,20.68
2023-04-18T04:51:11.074Z,19.24
2023-04-18T04:52:11.061Z,20.14
2023-04-18T04:53:11.065Z,18.76
2023-04-18T04:54:11.133Z,18.66
2023-04-18T04:55:11.070Z,19.68
2023-04-18T04:56:11.110Z,19.76
2023-04-18T04:57:11.071Z,19.34
2023-04-18T04:58:11.065Z,19.86
2023-04-18T04:59:11.060Z,17.66
2023-04-18T05:00:11.086Z,18.46
2023-04-18T05:01:11.089Z,19.92
2023-04-18T05:02:11.162Z,19.40
2023-04-18T05:03:11.210Z,20.46
2023-04-18T05:04:11.151Z,19.84
2023-04-18T05:05:11.064Z,19.28
2023-04-18T05:06:11.075Z,20.80
2023-04-18T05:07:11.066Z,20.94
2023-04-18T05:08:11.064Z,20.74
2023-04-18T05:09:11.070Z,21.58
2023-04-18T05:10:11.072Z,22.68
2023-04-18T05:11:11.063Z,20.98
2023-04-18T05:12:11.065Z,20.26
2023-04-18T05:13:11.077Z,20.84
2023-04-18T05:14:11.069Z,20.14
2023-04-18T05:15:11.064Z,19.78
2023-04-18T05:16:11.140Z,21.36
2023-04-18T05:17:11.067Z,21.28
2023-04-18T05:18:11.063Z,20.68
2023-04-18T05:19:11.070Z,20.50
2023-04-18T05:20:11.065Z,21.40
2023-04-18T05:21:11.064Z,22.26
2023-04-18T05:22:11.068Z,20.68
2023-04-18T05:23:11.111Z,21.74
2023-04-18T05:24:11.088Z,21.10
2023-04-18T05:25:11.106Z,22.46
2023-04-18T05:26:11.109Z,21.26
2023-04-18T05:27:11.093Z,22.42
2023-04-18T05:28:12.099Z,22.08
2023-04-18T05:29:11.085Z,23.48
2023-04-18T05:30:11.087Z,21.82
2023-04-18T05:31:11.119Z,22.56
2023-04-18T05:32:11.090Z,23.62
2023-04-18T05:33:11.130Z,24.22
2023-04-18T05:34:11.138Z,23.94
2023-04-18T05:35:11.082Z,23.94
2023-04-18T05:36:11.072Z,24.12
2023-04-18T05:37:11.067Z,24.18
2023-04-18T05:38:11.073Z,23.42
2023-04-18T05:39:11.075Z,22.92
2023-04-18T05:40:11.069Z,21.88
2023-04-18T05:41:11.088Z,25.10
2023-04-18T05:42:11.072Z,24.88
2023-04-18T05:43:11.070Z,24.02
2023-04-18T05:44:11.071Z,23.16
2023-04-18T05:45:11.071Z,23.56
2023-04-18T05:46:11.108Z,21.32
2023-04-18T05:47:11.072Z,22.44
2023-04-18T05:48:11.169Z,21.96
2023-04-18T05:49:11.073Z,22.16
2023-04-18T05:50:11.086Z,22.08
2023-04-18T05:51:11.718Z,20.74
2023-04-18T05:52:11.072Z,20.60
2023-04-18T05:53:11.085Z,21.72
2023-04-18T05:54:11.142Z,21.32
2023-04-18T05:55:11.070Z,22.60
2023-04-18T05:56:11.086Z,22.70
2023-04-18T05:57:11.080Z,21.10
2023-04-18T05:58:11.073Z,22.88
2023-04-18T05:59:11.069Z,24.00
2023-04-18T06:00:11.084Z,21.08
2023-04-18T06:01:11.076Z,20.86
2023-04-18T06:02:14.146Z,20.64
2023-04-18T06:03:11.689Z,22.70
2023-04-18T06:04:11.200Z,20.06
2023-04-18T06:05:11.336Z,22.32
2023-04-18T06:06:11.074Z,21.94
2023-04-18T06:07:11.081Z,22.74
2023-04-18T06:08:11.071Z,20.58
2023-04-18T06:09:11.085Z,22.28
2023-04-18T06:10:13.092Z,21.10
2023-04-18T06:11:11.075Z,20.74
2023-04-18T06:12:11.071Z,21.46
2023-04-18T06:13:11.080Z,18.62
2023-04-18T06:14:11.107Z,20.16
2023-04-18T06:15:11.071Z,21.14
2023-04-18T06:16:11.114Z,21.18
2023-04-18T06:17:11.076Z,20.18
2023-04-18T06:18:11.076Z,20.80
2023-04-18T06:19:11.077Z,19.52
2023-04-18T06:20:11.115Z,19.76
2023-04-18T06:21:11.074Z,22.58
2023-04-18T06:22:11.077Z,23.16
2023-04-18T06:23:11.082Z,21.32
2023-04-18T06:24:11.076Z,20.64
2023-04-18T06:25:11.083Z,20.24
2023-04-18T06:26:11.081Z,21.64
2023-04-18T06:27:17.698Z,20.36
2023-04-18T06:28:13.084Z,19.30
2023-04-18T06:29:11.077Z,21.20
2023-04-18T06:30:11.071Z,22.28
2023-04-18T06:31:11.102Z,18.30
2023-04-18T06:32:11.073Z,18.00
2023-04-18T06:33:11.096Z,17.96
2023-04-18T06:34:11.091Z,18.48
2023-04-18T06:35:11.074Z,19.26
2023-04-18T06:36:11.078Z,18.82
2023-04-18T06:37:11.079Z,17.82
2023-04-18T06:38:12.078Z,20.52
2023-04-18T06:39:11.084Z,18.82
2023-04-18T06:40:13.076Z,18.38
2023-04-18T06:41:11.078Z,19.72
2023-04-18T06:42:11.083Z,18.80
2023-04-18T06:43:11.078Z,18.48
2023-04-18T06:44:11.106Z,21.00
2023-04-18T06:45:11.080Z,16.24
2023-04-18T06:46:11.108Z,17.42
2023-04-18T06:47:11.082Z,19.64
2023-04-18T06:48:11.077Z,18.64
2023-04-18T06:49:11.159Z,20.44
2023-04-18T06:50:11.077Z,18.88
2023-04-18T06:51:11.081Z,19.14
2023-04-18T06:52:11.076Z,18.56
2023-04-18T06:53:11.077Z,15.96
2023-04-18T06:54:11.076Z,17.04
2023-04-18T06:55:11.081Z,16.44
2023-04-18T06:56:11.091Z,19.06
2023-04-18T06:57:11.110Z,18.78
2023-04-18T06:58:11.078Z,19.48
2023-04-18T06:59:11.170Z,19.10
2023-04-18T07:00:11.077Z,19.02
2023-04-18T07:01:11.129Z,20.28
2023-04-18T07:02:11.115Z,18.24
2023-04-18T07:03:13.614Z,17.68
2023-04-18T07:04:11.201Z,17.78
2023-04-18T07:05:11.132Z,17.68
2023-04-18T07:06:11.123Z,17.50
2023-04-18T07:07:11.081Z,16.18
2023-04-18T07:08:11.065Z,17.32
2023-04-18T07:09:11.073Z,17.86
2023-04-18T07:10:11.072Z,17.36
2023-04-18T07:11:11.064Z,17.30
2023-04-18T07:12:11.058Z,17.46
2023-04-18T07:13:11.058Z,15.76
2023-04-18T07:14:11.080Z,17.26
2023-04-18T07:15:11.059Z,15.40
2023-04-18T07:16:11.069Z,15.34
2023-04-18T07:17:11.138Z,15.06
2023-04-18T07:18:11.062Z,16.84
2023-04-18T07:19:11.060Z,16.94
2023-04-18T07:20:12.304Z,15.92
2023-04-18T07:21:12.061Z,18.32
2023-04-18T07:22:11.065Z,19.04
2023-04-18T07:23:11.062Z,18.06
2023-04-18T07:24:11.119Z,17.54
2023-04-18T07:25:11.060Z,16.98
2023-04-18T07:26:11.061Z,17.90
2023-04-18T07:27:11.062Z,18.42
2023-04-18T07:28:11.064Z,19.68
2023-04-18T07:29:11.132Z,18.26
2023-04-18T07:30:11.078Z,18.40
2023-04-18T07:31:11.117Z,17.38
2023-04-18T07:32:11.069Z,19.32
2023-04-18T07:33:11.061Z,19.54
2023-04-18T07:34:11.058Z,18.64
2023-04-18T07:35:11.076Z,17.80
2023-04-18T07:36:11.059Z,17.16
2023-04-18T07:37:12.545Z,19.12
2023-04-18T07:38:11.069Z,18.70
2023-04-18T07:39:11.065Z,18.20
2023-04-18T07:40:11.060Z,18.48
2023-04-18T07:41:11.065Z,17.48
2023-04-18T07:42:11.068Z,18.56
2023-04-18T07:43:11.061Z,17.56
2023-04-18T07:44:11.234Z,17.94
2023-04-18T07:45:11.069Z,16.52
2023-04-18T07:46:11.100Z,16.80
2023-04-18T07:47:11.122Z,18.46
2023-04-18T07:48:11.143Z,17.92
2023-04-18T07:49:11.186Z,18.40
2023-04-18T07:50:11.081Z,18.06
2023-04-18T07:51:11.075Z,17.80
2023-04-18T07:52:11.071Z,18.00
2023-04-18T07:53:11.072Z,16.82
2023-04-18T07:54:11.074Z,18.38
2023-04-18T07:55:11.066Z,18.62
2023-04-18T07:56:11.070Z,16.62
2023-04-18T07:57:11.077Z,18.18
2023-04-18T07:58:11.066Z,19.26
2023-04-18T07:59:11.079Z,18.20
2023-04-18T08:00:11.072Z,18.84
2023-04-18T08:01:11.069Z,20.86
2023-04-18T08:02:11.114Z,19.92
2023-04-18T08:03:11.259Z,18.40
2023-04-18T08:04:11.148Z,18.34
2023-04-18T08:05:11.210Z,19.76
2023-04-18T08:06:11.074Z,18.94
2023-04-18T08:07:11.076Z,19.46
2023-04-18T08:08:11.070Z,18.34
2023-04-18T08:09:11.128Z,19.38
2023-04-18T08:10:11.088Z,18.52
2023-04-18T08:11:11.068Z,18.00
2023-04-18T08:12:11.070Z,17.90
2023-04-18T08:13:11.076Z,18.90
2023-04-18T08:14:11.080Z,19.30
2023-04-18T08:15:11.096Z,18.58
2023-04-18T08:16:11.144Z,17.90
2023-04-18T08:17:11.069Z,18.64
2023-04-18T08:18:11.070Z,18.52
2023-04-18T08:19:11.228Z,17.40
2023-04-18T08:20:11.071Z,16.92
2023-04-18T08:21:11.068Z,16.68
2023-04-18T08:22:11.079Z,18.50
2023-04-18T08:23:13.083Z,17.58
2023-04-18T08:24:11.080Z,17.94
2023-04-18T08:25:11.072Z,18.36
2023-04-18T08:26:11.075Z,18.40
2023-04-18T08:27:11.089Z,17.28
2023-04-18T08:28:11.069Z,19.54
2023-04-18T08:29:11.185Z,17.80
2023-04-18T08:30:11.078Z,19.16
2023-04-18T08:31:13.090Z,17.86
2023-04-18T08:32:11.162Z,17.32
2023-04-18T08:33:11.101Z,16.84
2023-04-18T08:34:11.074Z,17.82
2023-04-18T08:35:11.077Z,18.32
2023-04-18T08:36:11.073Z,18.22
2023-04-18T08:37:11.089Z,20.52
2023-04-18T08:38:11.080Z,18.70
2023-04-18T08:39:11.208Z,18.68
2023-04-18T08:40:11.082Z,18.30
2023-04-18T08:41:11.079Z,16.78
2023-04-18T08:42:11.086Z,17.98
2023-04-18T08:43:11.083Z,18.08
2023-04-18T08:44:11.159Z,16.64
2023-04-18T08:45:11.074Z,18.24
2023-04-18T08:46:11.139Z,17.64
2023-04-18T08:47:11.079Z,16.42
2023-04-18T08:48:13.092Z,17.24
2023-04-18T08:49:11.991Z,18.96
2023-04-18T08:50:11.077Z,17.94
2023-04-18T08:51:11.073Z,17.68
2023-04-18T08:52:14.095Z,17.72
2023-04-18T08:53:11.074Z,17.88
2023-04-18T08:54:11.078Z,18.20
2023-04-18T08:55:11.072Z,19.42
2023-04-18T08:56:14.068Z,19.62
2023-04-18T08:57:11.080Z,17.86
2023-04-18T08:58:11.074Z,19.44
2023-04-18T08:59:11.075Z,17.68
2023-04-18T09:00:13.080Z,17.60
2023-04-18T09:01:11.121Z,18.48
2023-04-18T09:02:11.105Z,17.86
2023-04-18T09:03:13.107Z,16.78
2023-04-18T09:04:11.094Z,18.22
2023-04-18T09:05:15.129Z,17.74
2023-04-18T09:06:14.116Z,18.02
2023-04-18T09:07:15.070Z,17.52
2023-04-18T09:08:19.068Z,17.04
2023-04-18T09:09:11.237Z,18.36
2023-04-18T09:10:11.089Z,17.40
2023-04-18T09:11:19.072Z,16.58
2023-04-18T09:12:11.070Z,16.66
2023-04-18T09:13:11.074Z,16.46
2023-04-18T09:14:15.198Z,15.76
2023-04-18T09:15:15.098Z,16.12
2023-04-18T09:16:11.096Z,17.22
2023-04-18T09:17:11.084Z,14.32
2023-04-18T09:18:11.107Z,15.20
2023-04-18T09:19:14.610Z,10.66
2023-04-18T09:20:11.075Z,15.44
2023-04-18T09:21:17.085Z,16.48
2023-04-18T09:22:12.076Z,16.20
2023-04-18T09:23:11.490Z,15.88
2023-04-18T09:24:19.093Z,16.20
2023-04-18T09:25:12.077Z,15.12
2023-04-18T09:26:11.083Z,16.86
2023-04-18T09:27:13.080Z,16.42
2023-04-18T09:28:19.084Z,16.32
2023-04-18T09:29:11.160Z,14.68
2023-04-18T09:30:11.083Z,16.58
2023-04-18T09:31:11.140Z,15.56
2023-04-18T09:32:11.082Z,18.00
2023-04-18T09:33:11.077Z,15.42
2023-04-18T09:34:19.089Z,14.24
2023-04-18T09:35:11.087Z,14.72
2023-04-18T09:36:20.147Z,14.86
2023-04-18T09:37:13.138Z,16.12
2023-04-18T09:38:11.088Z,14.90
2023-04-18T09:39:15.231Z,14.42
2023-04-18T09:40:17.084Z,13.86
2023-04-18T09:41:11.108Z,15.66
2023-04-18T09:42:11.090Z,16.00
2023-04-18T09:43:17.103Z,14.12
2023-04-18T09:44:14.503Z,14.14
2023-04-18T09:45:11.090Z,15.00
2023-04-18T09:46:11.158Z,14.58
2023-04-18T09:47:11.082Z,14.32
2023-04-18T09:48:11.088Z,14.00
2023-04-18T09:49:11.385Z,15.10
2023-04-18T09:50:11.086Z,14.90
2023-04-18T09:51:11.116Z,14.94
2023-04-18T09:52:11.092Z,12.24
2023-04-18T09:53:11.086Z,12.82
2023-04-18T09:54:14.260Z,12.40
2023-04-18T09:55:11.085Z,14.08
2023-04-18T09:56:19.085Z,12.96
2023-04-18T09:57:12.083Z,14.36
2023-04-18T09:58:12.083Z,13.52
2023-04-18T09:59:11.105Z,11.94
2023-04-18T10:00:22.068Z,10.58
2023-04-18T10:01:11.101Z,12.36
2023-04-18T10:02:15.096Z,12.42
2023-04-18T10:03:11.134Z,11.76
2023-04-18T10:04:12.387Z,12.86
2023-04-18T10:05:11.096Z,11.12
2023-04-18T10:06:11.079Z,13.72
2023-04-18T10:07:11.061Z,12.28
2023-04-18T10:08:11.064Z,11.16
2023-04-18T10:09:11.131Z,11.48
2023-04-18T10:10:11.074Z,11.80
2023-04-18T10:11:11.069Z,11.06
2023-04-18T10:12:11.062Z,11.64
2023-04-18T10:13:11.126Z,11.84
2023-04-18T10:14:12.331Z,12.76
2023-04-18T10:15:11.064Z,12.40
2023-04-18T10:16:11.150Z,12.74
2023-04-18T10:17:11.074Z,12.56
2023-04-18T10:18:16.072Z,12.08
2023-04-18T10:19:19.069Z,13.36
2023-04-18T10:20:15.065Z,11.86
2023-04-18T10:21:11.072Z,11.60
2023-04-18T10:22:11.061Z,10.62
2023-04-18T10:23:19.065Z,10.18
2023-04-18T10:24:19.071Z,10.12
2023-04-18T10:25:11.065Z,12.38
2023-04-18T10:26:11.129Z,10.86
2023-04-18T10:27:11.063Z,12.24
2023-04-18T10:28:11.064Z,9.62
2023-04-18T10:29:11.203Z,11.18
2023-04-18T10:30:11.080Z,10.98
2023-04-18T10:31:11.081Z,11.94
2023-04-18T10:32:11.067Z,12.62
2023-04-18T10:33:29.351Z,12.66
2023-04-18T10:34:14.061Z,11.88
2023-04-18T10:35:11.080Z,12.14
2023-04-18T10:36:15.076Z,11.04
2023-04-18T10:37:11.070Z,11.06
2023-04-18T10:38:16.078Z,11.68
2023-04-18T10:39:19.073Z,13.52
2023-04-18T10:40:11.101Z,12.68
2023-04-18T10:41:18.092Z,12.70
2023-04-18T10:42:11.071Z,13.66
2023-04-18T10:43:11.070Z,12.62
2023-04-18T10:44:19.097Z,12.00
2023-04-18T10:45:19.078Z,11.70
2023-04-18T10:46:27.972Z,12.16
2023-04-18T10:47:20.119Z,12.28
2023-04-18T10:48:19.083Z,10.96
2023-04-18T10:49:21.946Z,11.50
2023-04-18T10:50:11.081Z,11.74
2023-04-18T10:51:15.087Z,11.98
2023-04-18T10:52:12.936Z,11.82
2023-04-18T10:53:11.071Z,10.84
2023-04-18T10:54:12.163Z,11.16
2023-04-18T10:55:18.085Z,9.00
2023-04-18T10:56:13.078Z,9.50
2023-04-18T10:57:11.084Z,10.04
2023-04-18T10:58:11.073Z,10.22
2023-04-18T10:59:11.109Z,10.76
2023-04-18T11:00:11.100Z,8.78
2023-04-18T11:01:14.094Z,10.52
2023-04-18T11:02:19.111Z,11.30
2023-04-18T11:03:11.285Z,10.60
2023-04-18T11:04:13.704Z,11.14
2023-04-18T11:05:11.074Z,11.88
2023-04-18T11:06:11.082Z,11.16
2023-04-18T11:07:11.085Z,10.70
2023-04-18T11:08:19.073Z,10.70
2023-04-18T11:09:13.083Z,11.08
2023-04-18T11:10:11.072Z,10.74
2023-04-18T11:11:13.072Z,9.92
2023-04-18T11:12:11.078Z,9.90
2023-04-18T11:13:11.080Z,9.98
2023-04-18T11:14:11.074Z,10.38
2023-04-18T11:15:13.087Z,11.80
2023-04-18T11:16:15.133Z,10.58
2023-04-18T11:17:19.075Z,11.64
2023-04-18T11:18:11.109Z,11.02
2023-04-18T11:19:17.090Z,10.44
2023-04-18T11:20:13.077Z,9.66
2023-04-18T11:21:11.074Z,8.40
2023-04-18T11:22:11.076Z,9.26
2023-04-18T11:23:17.082Z,9.98
2023-04-18T11:24:11.082Z,9.52
2023-04-18T11:25:11.079Z,11.52
2023-04-18T11:26:11.097Z,10.20
2023-04-18T11:27:11.084Z,10.82
2023-04-18T11:28:11.074Z,9.50
2023-04-18T11:29:11.082Z,9.18
2023-04-18T11:30:11.085Z,9.92
2023-04-18T11:31:11.073Z,11.14
2023-04-18T11:32:11.110Z,10.42
2023-04-18T11:33:13.117Z,8.90
2023-04-18T11:34:11.166Z,8.94
2023-04-18T11:35:12.080Z,8.28
2023-04-18T11:36:11.080Z,7.60
2023-04-18T11:37:11.079Z,8.16
2023-04-18T11:38:12.078Z,8.74
2023-04-18T11:39:11.083Z,8.18
2023-04-18T11:40:12.073Z,9.24
2023-04-18T11:41:15.083Z,7.80
2023-04-18T11:42:11.108Z,8.10
2023-04-18T11:43:11.076Z,9.38
2023-04-18T11:44:11.133Z,8.00
2023-04-18T11:45:15.086Z,9.40
2023-04-18T11:46:11.083Z,6.08
2023-04-18T11:47:19.120Z,7.94
2023-04-18T11:48:11.077Z,7.40
2023-04-18T11:49:15.081Z,6.48
2023-04-18T11:50:11.079Z,7.46
2023-04-18T11:51:19.080Z,8.02
2023-04-18T11:52:13.082Z,8.20
2023-04-18T11:53:11.085Z,8.26
2023-04-18T11:54:19.077Z,7.96
2023-04-18T11:55:21.090Z,7.64
2023-04-18T11:56:12.089Z,5.32
2023-04-18T11:57:19.077Z,7.00
2023-04-18T11:58:11.087Z,8.38
2023-04-18T11:59:11.092Z,7.58
2023-04-18T12:00:13.091Z,7.52
2023-04-18T12:01:19.086Z,8.32
2023-04-18T12:03:15.205Z,6.00
2023-04-18T12:04:11.285Z,5.54
2023-04-18T12:05:11.654Z,5.40
2023-04-18T12:06:11.238Z,5.46
2023-04-18T12:07:11.082Z,5.90
2023-04-18T12:08:13.093Z,6.02
2023-04-18T12:09:14.084Z,6.72
2023-04-18T12:10:15.107Z,6.44
2023-04-18T12:11:11.079Z,6.64
2023-04-18T12:12:11.081Z,5.60
2023-04-18T12:13:11.084Z,6.40
2023-04-18T12:14:19.083Z,5.08
2023-04-18T12:15:15.098Z,7.30
2023-04-18T12:16:11.101Z,6.34
2023-04-18T12:17:12.084Z,6.86
2023-04-18T12:18:12.117Z,5.86
2023-04-18T12:19:11.085Z,6.02
2023-04-18T12:20:11.086Z,6.74
2023-04-18T12:21:11.082Z,5.36
2023-04-18T12:22:11.083Z,6.14
2023-04-18T12:23:11.084Z,5.10
2023-04-18T12:24:15.326Z,6.70
2023-04-18T12:25:19.081Z,5.66
2023-04-18T12:26:13.090Z,5.92
2023-04-18T12:27:11.086Z,6.20
2023-04-18T12:28:15.099Z,4.80
2023-04-18T12:29:11.156Z,5.32
2023-04-18T12:30:11.085Z,5.32
2023-04-18T12:31:12.109Z,4.76
2023-04-18T12:32:11.095Z,5.30
2023-04-18T12:33:11.106Z,5.34
2023-04-18T12:34:11.132Z,6.16
2023-04-18T12:35:11.083Z,7.22
2023-04-18T12:36:12.085Z,4.96
2023-04-18T12:37:11.086Z,6.00
2023-04-18T12:38:11.086Z,6.34
2023-04-18T12:39:11.084Z,5.36
2023-04-18T12:40:11.094Z,5.64
2023-04-18T12:41:11.082Z,5.68
2023-04-18T12:42:11.133Z,4.76
2023-04-18T12:43:11.086Z,4.66
2023-04-18T12:44:11.206Z,5.62
2023-04-18T12:45:11.101Z,5.54
2023-04-18T12:46:11.141Z,4.68
2023-04-18T12:47:11.252Z,6.36
2023-04-18T12:48:11.083Z,5.20
2023-04-18T12:49:11.083Z,5.04
2023-04-18T12:50:11.432Z,4.86
2023-04-18T12:51:11.085Z,4.92
2023-04-18T12:52:11.141Z,5.62
2023-04-18T12:53:11.082Z,5.34
2023-04-18T12:54:11.170Z,5.50
2023-04-18T12:55:11.090Z,5.30
2023-04-18T12:56:11.097Z,4.88
2023-04-18T12:57:11.086Z,4.62
2023-04-18T12:58:11.080Z,4.94
2023-04-18T12:59:11.121Z,5.32
2023-04-18T13:00:15.099Z,4.76
2023-04-18T13:01:11.129Z,5.16
2023-04-18T13:02:11.221Z,5.16
2023-04-18T13:03:13.263Z,6.00
2023-04-18T13:04:12.973Z,5.38